Time;durP1;ratioP1;P1;durP2;ratioP2;P2;SDS_P1;SDS_P2;PMS_P1;PMS_P2;Temp;Humidity;BMP_temperature;BMP_pressure;BME280_temperature;BME280_humidity;BME280_pressure;Samples;Min_cycle;Max_cycle;Signal;HPM_P1;HPM_P2
2022/01/01 00:01:29;;;;;;;33.80;15.85;;;10.70;99.90;;;;;;5012066;28;20508;-83
2022/01/01 00:03:54;;;;;;;39.13;17.45;;;11.10;99.90;;;;;;5013859;28;20100;-82
2022/01/01 00:06:20;;;;;;;36.40;17.05;;;10.70;99.90;;;;;;5014601;28;20041;-81
2022/01/01 00:08:46;;;;;;;67.10;40.30;;;10.70;99.90;;;;;;5014228;28;20045;-83
2022/01/01 00:11:13;;;;;;;67.55;42.55;;;10.70;99.90;;;;;;5013850;28;20076;-83
2022/01/01 00:13:39;;;;;;;44.75;22.80;;;10.70;99.90;;;;;;5009466;28;20053;-85
2022/01/01 00:16:09;;;;;;;42.80;20.45;;;11.20;99.90;;;;;;5013433;28;20128;-83
2022/01/01 00:18:41;;;;;;;37.55;17.25;;;10.70;99.90;;;;;;4995967;28;20045;-83
2022/01/01 00:21:07;;;;;;;39.33;18.50;;;10.70;99.90;;;;;;5013720;28;20045;-84
2022/01/01 00:23:48;;;;;;;40.78;19.17;;;11.20;99.90;;;;;;5118425;23;20127;-83
2022/01/01 00:26:16;;;;;;;42.90;17.25;;;10.70;99.90;;;;;;5035083;28;20085;-84
2022/01/01 00:28:42;;;;;;;37.38;17.95;;;10.70;99.90;;;;;;5008977;23;20137;-84
2022/01/01 00:31:16;;;;;;;37.47;17.58;;;10.80;99.90;;;;;;5033382;28;20069;-84
2022/01/01 00:33:45;;;;;;;34.53;17.25;;;10.80;99.90;;;;;;5031889;28;20042;-82
2022/01/01 00:36:10;;;;;;;33.75;16.80;;;10.80;99.90;;;;;;5034156;28;20085;-84
2022/01/01 00:38:36;;;;;;;41.00;16.90;;;10.80;99.90;;;;;;5033527;28;20483;-83
2022/01/01 00:41:02;;;;;;;40.05;18.08;;;11.00;99.90;;;;;;5033892;28;20380;-80
2022/01/01 00:43:28;;;;;;;79.32;46.30;;;10.80;99.90;;;;;;5036768;28;20049;-80
2022/01/01 00:45:54;;;;;;;50.88;25.27;;;10.80;99.90;;;;;;5033235;28;20482;-81
2022/01/01 00:48:19;;;;;;;47.45;21.45;;;10.70;99.90;;;;;;5033296;28;20127;-81
2022/01/01 00:51:01;;;;;;;39.83;17.77;;;10.70;99.90;;;;;;5040010;28;20479;-80
2022/01/01 00:53:26;;;;;;;45.30;19.35;;;10.70;99.90;;;;;;5039624;28;20045;-79
2022/01/01 00:55:52;;;;;;;44.05;20.00;;;10.70;99.90;;;;;;5037987;28;20050;-81
2022/01/01 00:58:18;;;;;;;40.17;18.88;;;10.70;99.90;;;;;;5037639;28;20053;-81
2022/01/01 01:00:44;;;;;;;40.75;18.80;;;10.80;99.90;;;;;;5037344;28;20049;-79
2022/01/01 01:03:11;;;;;;;44.53;20.10;;;10.70;99.90;;;;;;5037071;28;20117;-78
2022/01/01 01:05:39;;;;;;;40.65;18.73;;;11.30;99.90;;;;;;5035794;28;20050;-79
2022/01/01 01:08:09;;;;;;;44.33;19.13;;;10.80;99.90;;;;;;5036895;28;20042;-80
2022/01/01 01:10:37;;;;;;;45.53;18.50;;;10.30;99.90;;;;;;5036155;28;20049;-80
2022/01/01 01:13:04;;;;;;;45.85;19.30;;;10.50;99.90;;;;;;5037376;28;20387;-80
2022/01/01 01:15:32;;;;;;;49.88;19.40;;;10.60;99.90;;;;;;5037187;28;20585;-81
2022/01/01 01:17:58;;;;;;;47.88;22.02;;;10.50;99.90;;;;;;5036531;28;20085;-80
2022/01/01 01:20:26;;;;;;;44.72;20.75;;;10.50;99.90;;;;;;5036675;28;20045;-80
2022/01/01 01:22:53;;;;;;;41.75;20.30;;;11.00;99.90;;;;;;5036245;28;20148;-80
2022/01/01 01:25:20;;;;;;;53.83;21.58;;;11.30;99.90;;;;;;5036106;28;20042;-81
2022/01/01 01:27:49;;;;;;;50.90;20.10;;;10.40;99.90;;;;;;5042037;28;20487;-80
2022/01/01 01:30:16;;;;;;;55.28;22.88;;;10.50;99.90;;;;;;5037927;28;20407;-80
2022/01/01 01:32:44;;;;;;;50.03;21.98;;;10.60;99.90;;;;;;5224322;22;20515;-85
2022/01/01 01:35:10;;;;;;;50.03;22.52;;;10.40;99.90;;;;;;5036716;28;20059;-83
2022/01/01 01:37:37;;;;;;;52.78;22.40;;;10.50;99.90;;;;;;5036525;28;20471;-83
2022/01/01 01:40:04;;;;;;;52.03;23.35;;;10.50;99.90;;;;;;5035874;28;20051;-83
2022/01/01 01:42:31;;;;;;;51.30;23.33;;;10.50;99.90;;;;;;5038510;28;20471;-81
2022/01/01 01:44:58;;;;;;;56.00;25.05;;;10.50;99.90;;;;;;5039627;28;20048;-83
2022/01/01 01:47:33;;;;;;;50.50;23.60;;;10.50;99.90;;;;;;5039087;28;20116;-83
2022/01/01 01:50:01;;;;;;;53.75;22.88;;;10.50;99.90;;;;;;5022431;28;20052;-84
2022/01/01 01:52:34;;;;;;;51.25;24.33;;;10.80;99.90;;;;;;5019212;28;20045;-84
2022/01/01 01:55:03;;;;;;;53.33;24.65;;;10.50;99.90;;;;;;5036995;28;20045;-83
2022/01/01 01:57:30;;;;;;;51.33;23.58;;;10.50;99.90;;;;;;5036355;28;20049;-83
2022/01/01 01:59:56;;;;;;;55.90;25.02;;;10.70;99.90;;;;;;5035871;28;20045;-84
2022/01/01 02:02:22;;;;;;;54.88;23.08;;;10.50;99.90;;;;;;5016658;28;20045;-84
2022/01/01 02:04:47;;;;;;;56.42;23.98;;;10.40;99.90;;;;;;5025962;23;20523;-84
2022/01/01 02:07:13;;;;;;;47.70;22.17;;;10.50;99.90;;;;;;5014923;28;20046;-83
2022/01/01 02:09:40;;;;;;;54.17;22.55;;;10.70;99.90;;;;;;5016333;28;20045;-83
2022/01/01 02:12:07;;;;;;;46.33;20.75;;;10.50;99.90;;;;;;5015190;28;20033;-84
2022/01/01 02:17:15;;;;;;;57.65;21.65;;;10.50;99.90;;;;;;5015585;28;20093;-84
2022/01/01 02:19:49;;;;;;;52.08;22.80;;;10.60;99.90;;;;;;5017272;28;20054;-83
2022/01/01 02:22:16;;;;;;;51.70;20.77;;;10.50;99.90;;;;;;5015095;28;20112;-82
2022/01/01 02:24:42;;;;;;;49.22;20.25;;;10.60;99.90;;;;;;5014872;28;20054;-80
2022/01/01 02:27:08;;;;;;;48.33;19.40;;;10.60;99.90;;;;;;5013714;28;20045;-82
2022/01/01 02:29:35;;;;;;;50.00;20.35;;;10.60;99.90;;;;;;5014866;28;20042;-82
2022/01/01 02:32:00;;;;;;;52.30;20.92;;;10.60;99.90;;;;;;5014410;28;20381;-81
2022/01/01 02:34:26;;;;;;;55.35;24.05;;;10.60;99.90;;;;;;5014538;28;20057;-82
2022/01/01 02:36:52;;;;;;;49.90;21.65;;;10.60;99.90;;;;;;5014520;28;20446;-81
2022/01/01 02:39:22;;;;;;;45.55;21.05;;;10.60;99.90;;;;;;5014666;28;20100;-81
2022/01/01 02:41:54;;;;;;;57.58;23.05;;;10.60;99.90;;;;;;5020300;28;20034;-82
2022/01/01 02:44:21;;;;;;;;;;;10.60;99.90;;;;;;5025224;28;20030;-79
2022/01/01 02:46:47;;;;;;;57.25;22.92;;;10.60;99.90;;;;;;5018988;28;19928;-83
2022/01/01 02:49:12;;;;;;;60.53;25.35;;;10.60;99.90;;;;;;5013954;28;20042;-83
2022/01/01 02:51:38;;;;;;;59.80;26.38;;;10.60;99.90;;;;;;5013251;28;20399;-83
2022/01/01 02:54:04;;;;;;;65.25;26.90;;;11.10;99.90;;;;;;5012033;28;20474;-82
2022/01/01 02:56:29;;;;;;;68.53;27.42;;;10.60;99.90;;;;;;5014560;28;20121;-82
2022/01/01 02:58:55;;;;;;;66.53;31.73;;;10.60;99.90;;;;;;5013910;28;20049;-83
2022/01/01 03:01:21;;;;;;;72.80;32.13;;;11.00;99.90;;;;;;5013809;28;20041;-83
2022/01/01 03:03:47;;;;;;;63.90;30.35;;;10.60;99.90;;;;;;5012449;28;20530;-80
2022/01/01 03:06:19;;;;;;;72.85;33.47;;;10.70;99.90;;;;;;5012179;28;20384;-84
2022/01/01 03:08:51;;;;;;;76.80;34.60;;;10.70;99.90;;;;;;5012343;28;20480;-83
2022/01/01 03:11:17;;;;;;;72.10;35.08;;;10.70;99.90;;;;;;5013872;28;20500;-84
2022/01/01 03:13:43;;;;;;;83.20;37.17;;;10.80;99.90;;;;;;5012083;28;20136;-83
2022/01/01 03:16:09;;;;;;;76.70;37.25;;;10.70;99.90;;;;;;5013507;28;20045;-82
2022/01/01 03:18:34;;;;;;;75.80;37.25;;;10.70;99.90;;;;;;5013265;28;20049;-83
2022/01/01 03:21:00;;;;;;;72.53;36.33;;;10.70;99.90;;;;;;5013555;28;20046;-82
2022/01/01 03:23:25;;;;;;;77.32;38.20;;;10.60;99.90;;;;;;5013571;28;20100;-83
2022/01/01 03:25:51;;;;;;;77.60;38.55;;;11.20;99.90;;;;;;5013361;28;20385;-83
2022/01/01 03:28:17;;;;;;;82.18;39.25;;;10.80;99.90;;;;;;5013304;28;20476;-84
2022/01/01 03:30:43;;;;;;;80.30;39.53;;;10.70;99.90;;;;;;5013342;28;20093;-83
2022/01/01 03:33:09;;;;;;;76.65;36.70;;;10.60;99.90;;;;;;5012063;28;20472;-83
2022/01/01 03:35:35;;;;;;;78.65;38.55;;;10.60;99.90;;;;;;5013024;28;20068;-84
2022/01/01 03:38:00;;;;;;;81.13;39.47;;;10.70;99.90;;;;;;5013410;28;20107;-83
2022/01/01 03:40:26;;;;;;;70.90;37.10;;;10.60;99.90;;;;;;5013239;28;20408;-82
2022/01/01 03:42:52;;;;;;;76.68;38.17;;;10.60;99.90;;;;;;5013125;28;20112;-83
2022/01/01 03:45:17;;;;;;;80.38;38.47;;;10.60;99.90;;;;;;5011882;28;20132;-81
2022/01/01 03:47:43;;;;;;;74.40;37.83;;;10.60;99.90;;;;;;5013085;28;20053;-81
2022/01/01 03:50:09;;;;;;;80.18;38.63;;;11.10;99.90;;;;;;5012740;28;20050;-83
2022/01/01 03:52:34;;;;;;;77.35;37.03;;;10.60;99.90;;;;;;5012956;28;20049;-84
2022/01/01 03:55:01;;;;;;;82.80;36.50;;;10.60;99.90;;;;;;5011367;28;20076;-82
2022/01/01 03:57:26;;;;;;;79.97;37.17;;;10.80;99.90;;;;;;5012897;28;20059;-84
2022/01/01 03:59:52;;;;;;;78.10;36.05;;;10.60;99.90;;;;;;5012795;28;20054;-84
2022/01/01 04:02:18;;;;;;;79.10;36.63;;;11.20;99.90;;;;;;4994860;28;20101;-83
2022/01/01 04:04:43;;;;;;;73.45;35.92;;;10.60;99.90;;;;;;5012534;28;20050;-84
2022/01/01 04:07:10;;;;;;;78.57;37.35;;;10.60;99.90;;;;;;5012614;28;20049;-82
2022/01/01 04:09:35;;;;;;;68.63;35.60;;;11.00;99.90;;;;;;5012937;28;20046;-80
2022/01/01 04:12:01;;;;;;;70.82;34.13;;;10.60;99.90;;;;;;5012887;28;20550;-81
2022/01/01 04:14:27;;;;;;;75.85;37.30;;;10.60;99.90;;;;;;5012823;28;20053;-80
2022/01/01 04:16:54;;;;;;;71.07;36.83;;;11.10;99.90;;;;;;5011465;28;20089;-80
2022/01/01 04:19:24;;;;;;;75.38;36.70;;;10.50;99.90;;;;;;4994817;28;20050;-80
2022/01/01 04:21:50;;;;;;;72.32;36.13;;;10.60;99.90;;;;;;4994668;28;20065;-80
2022/01/01 04:24:16;;;;;;;75.75;36.75;;;10.80;99.90;;;;;;5013714;28;20091;-80
2022/01/01 04:26:41;;;;;;;85.75;36.05;;;10.60;99.90;;;;;;5016614;28;20050;-81
2022/01/01 04:29:07;;;;;;;74.25;38.25;;;10.60;99.90;;;;;;5015731;28;20050;-81
2022/01/01 04:31:32;;;;;;;74.53;37.42;;;10.50;99.90;;;;;;5016404;28;20050;-81
2022/01/01 04:33:58;;;;;;;87.75;40.22;;;10.50;99.90;;;;;;5015486;28;20042;-80
2022/01/01 04:36:24;;;;;;;75.05;37.97;;;11.00;99.90;;;;;;5016409;28;20050;-80
2022/01/01 04:38:50;;;;;;;83.70;39.15;;;10.50;99.90;;;;;;4998768;28;20147;-80
2022/01/01 04:41:16;;;;;;;84.25;40.80;;;10.80;99.90;;;;;;5015088;28;20108;-80
2022/01/01 04:43:43;;;;;;;79.75;40.63;;;10.50;99.90;;;;;;5016476;28;20045;-80
2022/01/01 04:46:12;;;;;;;80.03;40.20;;;10.90;99.90;;;;;;5014996;28;20045;-80
2022/01/01 04:48:40;;;;;;;74.20;39.10;;;10.60;99.90;;;;;;5016261;28;20116;-80
2022/01/01 04:51:10;;;;;;;76.40;40.38;;;10.60;99.90;;;;;;5016150;28;20053;-79
2022/01/01 04:53:36;;;;;;;79.85;41.25;;;10.60;99.90;;;;;;5016373;28;20061;-80
2022/01/01 04:56:06;;;;;;;77.22;40.10;;;10.60;99.90;;;;;;5016452;28;20179;-79
2022/01/01 04:58:32;;;;;;;82.57;43.47;;;10.60;99.90;;;;;;5016363;28;20052;-80
2022/01/01 05:00:58;;;;;;;89.18;42.75;;;10.60;99.90;;;;;;5015925;28;20038;-79
2022/01/01 05:03:23;;;;;;;84.07;45.90;;;10.90;99.90;;;;;;5016065;28;20250;-80
2022/01/01 05:05:49;;;;;;;84.90;44.78;;;10.60;99.90;;;;;;5015467;28;20496;-80
2022/01/01 05:08:14;;;;;;;93.25;47.50;;;10.90;99.90;;;;;;5015354;28;20050;-80
2022/01/01 05:10:40;;;;;;;92.85;46.75;;;10.60;99.90;;;;;;5014732;28;20066;-80
2022/01/01 05:13:06;;;;;;;94.57;47.67;;;10.60;99.90;;;;;;5016135;28;20062;-83
2022/01/01 05:15:32;;;;;;;92.80;48.08;;;10.50;99.90;;;;;;5015925;28;20053;-80
2022/01/01 05:17:57;;;;;;;88.90;49.25;;;11.00;99.90;;;;;;5014685;28;20129;-82
2022/01/01 05:20:23;;;;;;;101.40;49.63;;;10.80;99.90;;;;;;5015719;28;20053;-82
2022/01/01 05:22:49;;;;;;;95.55;51.42;;;10.50;99.90;;;;;;5015685;28;20330;-82
2022/01/01 05:25:14;;;;;;;84.53;48.42;;;10.50;99.90;;;;;;5015391;28;20048;-83
2022/01/01 05:27:40;;;;;;;97.72;50.40;;;10.50;99.90;;;;;;5014168;28;20061;-84
2022/01/01 05:30:07;;;;;;;96.72;50.00;;;10.60;99.90;;;;;;5015800;28;20389;-82
2022/01/01 05:32:33;;;;;;;105.93;50.28;;;10.50;99.90;;;;;;5015535;28;20045;-83
2022/01/01 05:34:59;;;;;;;90.82;46.25;;;10.60;99.90;;;;;;5015402;28;20050;-83
2022/01/01 05:37:25;;;;;;;98.53;49.38;;;10.90;99.90;;;;;;5014144;28;20056;-83
2022/01/01 05:39:50;;;;;;;88.47;48.55;;;10.50;99.90;;;;;;5014200;28;20124;-83
2022/01/01 05:42:16;;;;;;;86.00;49.20;;;10.50;99.90;;;;;;5015385;28;20406;-83
2022/01/01 05:44:42;;;;;;;88.00;45.55;;;10.50;99.90;;;;;;5014176;28;20042;-83
2022/01/01 05:47:07;;;;;;;85.43;47.85;;;10.50;99.90;;;;;;5014231;28;20049;-84
2022/01/01 05:49:34;;;;;;;93.97;48.42;;;10.50;99.90;;;;;;5014445;28;20049;-81
2022/01/01 05:52:00;;;;;;;86.18;49.08;;;10.50;99.90;;;;;;5015276;28;20498;-80
2022/01/01 05:54:26;;;;;;;93.47;48.95;;;10.50;99.90;;;;;;5015029;28;20133;-81
2022/01/01 05:56:51;;;;;;;104.68;52.33;;;10.60;99.90;;;;;;5015161;28;20050;-80
2022/01/01 05:59:17;;;;;;;98.75;49.38;;;10.50;99.90;;;;;;5015247;28;20476;-81
2022/01/01 06:01:43;;;;;;;89.00;48.42;;;10.50;99.90;;;;;;5015158;28;20050;-83
2022/01/01 06:04:08;;;;;;;86.60;47.97;;;10.60;99.90;;;;;;5014984;28;20046;-83
2022/01/01 06:06:34;;;;;;;89.32;49.80;;;10.60;99.90;;;;;;5014927;28;20120;-82
2022/01/01 06:09:00;;;;;;;93.10;50.40;;;10.60;99.90;;;;;;4997791;28;20503;-84
2022/01/01 06:11:26;;;;;;;100.25;50.45;;;10.50;99.90;;;;;;4997647;28;20046;-82
2022/01/01 06:13:51;;;;;;;92.28;48.72;;;10.60;99.90;;;;;;5014890;28;20100;-79
2022/01/01 06:16:17;;;;;;;94.57;49.22;;;10.60;99.90;;;;;;5014661;28;20040;-81
2022/01/01 06:18:43;;;;;;;94.88;48.47;;;10.60;99.90;;;;;;5014598;28;20050;-80
2022/01/01 06:21:08;;;;;;;94.25;48.53;;;11.00;99.90;;;;;;4998017;28;20046;-80
2022/01/01 06:23:37;;;;;;;98.63;48.50;;;10.60;99.90;;;;;;5019125;28;20057;-83
2022/01/01 06:26:03;;;;;;;92.75;45.47;;;10.60;99.90;;;;;;5023444;28;20056;-83
2022/01/01 06:28:29;;;;;;;94.53;46.20;;;10.60;99.90;;;;;;5022142;28;20050;-80
2022/01/01 06:30:55;;;;;;;85.80;43.22;;;10.60;99.90;;;;;;5019610;28;20081;-80
2022/01/01 06:33:21;;;;;;;81.07;42.35;;;10.60;99.90;;;;;;4985687;28;20095;-80
2022/01/01 06:35:48;;;;;;;84.97;42.70;;;10.60;99.90;;;;;;4997058;28;20415;-80
2022/01/01 06:38:14;;;;;;;78.60;38.90;;;10.70;99.90;;;;;;5014193;28;20057;-80
2022/01/01 06:40:42;;;;;;;81.78;36.92;;;10.70;99.90;;;;;;5014473;28;20116;-80
2022/01/01 06:43:09;;;;;;;69.95;35.63;;;10.70;99.90;;;;;;5014253;28;20056;-78
2022/01/01 06:45:36;;;;;;;75.07;36.42;;;10.60;99.90;;;;;;4996591;28;20085;-81
2022/01/01 06:48:02;;;;;;;72.32;34.40;;;10.60;99.90;;;;;;5013859;28;20038;-81
2022/01/01 06:50:28;;;;;;;79.40;34.08;;;10.60;99.90;;;;;;5014173;28;20081;-80
2022/01/01 06:52:54;;;;;;;68.80;32.65;;;10.60;99.90;;;;;;5013795;28;20070;-80
2022/01/01 06:55:20;;;;;;;74.18;31.92;;;10.60;99.90;;;;;;5014193;28;20050;-80
2022/01/01 06:57:46;;;;;;;73.03;31.10;;;10.60;99.90;;;;;;5014297;28;20041;-80
2022/01/01 07:00:13;;;;;;;69.13;31.98;;;10.90;99.90;;;;;;5013961;28;20033;-81
2022/01/01 07:02:47;;;;;;;73.22;31.20;;;10.60;99.90;;;;;;5013946;28;20050;-80
2022/01/01 07:05:14;;;;;;;74.78;32.55;;;10.50;99.90;;;;;;5014173;28;20061;-82
2022/01/01 07:07:40;;;;;;;71.28;29.42;;;10.60;99.90;;;;;;5016216;28;20050;-83
2022/01/01 07:10:08;;;;;;;72.38;31.10;;;10.60;99.90;;;;;;4997538;28;20132;-82
2022/01/01 07:12:35;;;;;;;78.68;33.50;;;10.60;99.90;;;;;;5014854;28;20038;-83
2022/01/01 07:15:01;;;;;;;70.30;29.90;;;10.70;99.90;;;;;;5015537;28;20046;-83
2022/01/01 07:17:26;;;;;;;69.30;29.27;;;10.50;99.90;;;;;;5013905;28;20033;-84
2022/01/01 07:19:52;;;;;;;75.07;30.73;;;11.20;99.90;;;;;;4980196;28;20440;-84
2022/01/01 07:22:18;;;;;;;69.38;29.70;;;11.00;99.90;;;;;;5013823;28;20092;-83
2022/01/01 07:24:44;;;;;;;77.75;30.65;;;10.50;99.90;;;;;;5013516;28;20476;-84
2022/01/01 07:27:11;;;;;;;66.50;28.30;;;10.60;99.90;;;;;;5013634;28;20049;-83
2022/01/01 07:29:37;;;;;;;64.80;27.10;;;10.50;99.90;;;;;;5013538;28;20089;-84
2022/01/01 07:32:03;;;;;;;65.35;26.55;;;10.50;99.90;;;;;;4995850;28;20088;-84
2022/01/01 07:34:29;;;;;;;62.63;26.27;;;10.50;99.90;;;;;;5013155;28;20484;-83
2022/01/01 07:36:54;;;;;;;56.92;26.50;;;10.60;99.90;;;;;;5013168;28;20068;-82
2022/01/01 07:39:20;;;;;;;67.68;26.90;;;10.50;99.90;;;;;;4995703;28;20061;-82
2022/01/01 07:41:46;;;;;;;58.05;25.92;;;10.60;99.90;;;;;;5013408;28;20038;-82
2022/01/01 07:44:13;;;;;;;60.55;24.77;;;11.00;99.90;;;;;;5013169;28;20132;-84
2022/01/01 07:46:39;;;;;;;60.47;26.30;;;10.50;99.90;;;;;;4979544;28;20400;-82
2022/01/01 07:49:05;;;;;;;57.92;25.10;;;11.10;99.90;;;;;;5012857;28;20053;-84
2022/01/01 07:51:31;;;;;;;51.63;23.13;;;10.60;99.90;;;;;;5013229;28;20131;-83
2022/01/01 07:53:57;;;;;;;63.28;25.50;;;10.80;99.90;;;;;;5012944;28;20518;-84
2022/01/01 07:56:22;;;;;;;58.30;23.63;;;10.60;99.90;;;;;;4995529;28;20054;-84
2022/01/01 07:58:48;;;;;;;52.38;23.25;;;10.60;99.90;;;;;;5012201;28;20096;-84
2022/01/01 08:01:13;;;;;;;54.47;23.95;;;11.00;99.90;;;;;;4997609;28;20410;-84
2022/01/01 08:03:39;;;;;;;64.18;24.83;;;10.60;99.90;;;;;;4998047;28;20575;-84
2022/01/01 08:06:05;;;;;;;63.80;25.60;;;10.60;99.90;;;;;;5007369;28;20133;-84
2022/01/01 08:08:30;;;;;;;63.67;24.88;;;10.70;99.90;;;;;;5015051;28;20057;-84
2022/01/01 08:10:56;;;;;;;58.80;25.27;;;10.60;99.90;;;;;;5014853;28;20046;-84
2022/01/01 08:13:24;;;;;;;62.53;22.80;;;10.90;99.90;;;;;;5014153;28;20046;-83
2022/01/01 08:15:53;;;;;;;66.63;25.50;;;10.70;99.90;;;;;;5013222;28;20050;-83
2022/01/01 08:18:19;;;;;;;60.63;26.23;;;11.00;99.90;;;;;;5012943;28;20182;-83
2022/01/01 08:20:46;;;;;;;62.90;24.23;;;10.70;99.90;;;;;;5012951;28;20108;-83
2022/01/01 08:23:12;;;;;;;65.85;23.88;;;10.80;99.90;;;;;;5012734;28;20049;-82
2022/01/01 08:25:38;;;;;;;58.50;25.30;;;10.70;99.90;;;;;;5012707;28;20049;-82
2022/01/01 08:28:05;;;;;;;63.03;24.45;;;10.80;99.90;;;;;;5011695;28;20059;-81
2022/01/01 08:30:32;;;;;;;58.78;25.45;;;10.80;99.90;;;;;;5013541;28;20069;-78
2022/01/01 08:33:01;;;;;;;55.53;23.33;;;10.80;99.90;;;;;;5012633;28;20041;-79
2022/01/01 08:35:34;;;;;;;58.75;23.23;;;10.90;99.90;;;;;;5012591;28;20137;-78
2022/01/01 08:38:03;;;;;;;57.00;23.17;;;10.80;99.90;;;;;;5011323;28;20053;-78
2022/01/01 08:40:30;;;;;;;54.67;23.35;;;10.90;99.90;;;;;;5012873;28;20571;-79
2022/01/01 08:42:55;;;;;;;58.90;23.20;;;10.90;99.90;;;;;;5012456;28;20118;-83
2022/01/01 08:45:22;;;;;;;53.35;23.35;;;10.90;99.90;;;;;;5012912;28;20369;-78
2022/01/01 08:47:47;;;;;;;56.17;23.02;;;11.20;99.90;;;;;;5012559;28;20050;-78
2022/01/01 08:50:13;;;;;;;56.90;21.73;;;10.90;99.90;;;;;;5014082;28;20412;-80
2022/01/01 08:52:40;;;;;;;48.47;21.63;;;11.00;99.90;;;;;;5018569;28;20069;-81
2022/01/01 08:55:06;;;;;;;45.80;21.23;;;10.90;99.90;;;;;;5018677;28;20488;-79
2022/01/01 08:57:32;;;;;;;48.85;21.23;;;11.00;99.90;;;;;;5014291;28;20073;-81
2022/01/01 09:00:00;;;;;;;52.05;22.60;;;11.00;99.90;;;;;;5011120;28;20463;-79
2022/01/01 09:02:26;;;;;;;49.45;21.42;;;11.40;99.90;;;;;;5012365;28;20061;-82
2022/01/01 09:04:52;;;;;;;49.95;22.30;;;11.60;99.90;;;;;;5010756;28;20050;-81
2022/01/01 09:07:18;;;;;;;52.72;23.00;;;11.10;99.90;;;;;;5011934;28;20575;-83
2022/01/01 09:09:45;;;;;;;54.15;24.23;;;11.10;99.90;;;;;;5012223;28;20053;-84
2022/01/01 09:12:11;;;;;;;45.97;22.27;;;11.10;99.90;;;;;;4998130;28;20050;-83
2022/01/01 09:14:38;;;;;;;55.72;24.23;;;11.10;99.90;;;;;;5015885;28;20042;-83
2022/01/01 09:17:06;;;;;;;55.25;24.63;;;11.40;99.90;;;;;;5016203;28;20117;-84
2022/01/01 09:19:32;;;;;;;52.10;25.33;;;11.80;99.90;;;;;;5015755;28;20103;-84
2022/01/01 09:21:58;;;;;;;57.67;25.10;;;11.10;99.90;;;;;;5015635;28;20508;-82
2022/01/01 09:24:23;;;;;;;66.90;28.30;;;11.10;99.90;;;;;;4997913;28;20053;-83
2022/01/01 09:26:49;;;;;;;59.67;26.58;;;11.10;99.90;;;;;;5015611;28;20053;-82
2022/01/01 09:29:15;;;;;;;61.22;27.63;;;11.10;99.90;;;;;;4998021;28;20038;-82
2022/01/01 09:31:42;;;;;;;59.22;28.45;;;11.10;99.90;;;;;;4997743;28;20085;-82
2022/01/01 09:34:08;;;;;;;66.45;26.77;;;11.20;99.90;;;;;;4997832;28;20050;-82
2022/01/01 09:36:34;;;;;;;67.63;27.45;;;11.10;99.90;;;;;;5015588;28;20045;-83
2022/01/01 09:39:03;;;;;;;59.58;26.10;;;11.20;99.90;;;;;;4997810;28;20054;-83
2022/01/01 09:41:29;;;;;;;57.95;26.45;;;11.60;99.90;;;;;;5015716;28;20081;-84
2022/01/01 09:43:56;;;;;;;62.65;27.23;;;11.50;99.90;;;;;;5015555;28;20093;-82
2022/01/01 09:46:22;;;;;;;61.60;27.88;;;11.60;99.90;;;;;;5015132;28;20046;-82
2022/01/01 09:48:50;;;;;;;64.65;26.50;;;11.60;99.90;;;;;;4997945;28;20116;-84
2022/01/01 09:51:15;;;;;;;61.50;25.48;;;11.40;99.90;;;;;;5015374;28;20046;-84
2022/01/01 09:53:41;;;;;;;58.95;28.17;;;11.40;99.90;;;;;;4998157;28;20054;-83
2022/01/01 09:56:07;;;;;;;58.67;25.63;;;11.40;99.90;;;;;;5015102;28;20114;-84
2022/01/01 09:58:38;;;;;;;54.35;26.10;;;11.40;99.90;;;;;;5015250;28;20041;-82
2022/01/01 10:01:06;;;;;;;53.92;25.25;;;11.40;99.90;;;;;;5015140;28;20050;-83
2022/01/01 10:03:41;;;;;;;50.50;24.00;;;11.50;99.90;;;;;;5016645;28;20026;-84
2022/01/01 10:06:12;;;;;;;49.58;24.10;;;11.70;99.90;;;;;;5027745;28;20105;-83
2022/01/01 10:08:40;;;;;;;58.15;24.70;;;11.70;99.90;;;;;;5027329;28;20053;-82
2022/01/01 10:11:08;;;;;;;53.67;24.08;;;11.70;99.90;;;;;;5026132;28;20085;-84
2022/01/01 10:13:37;;;;;;;43.42;22.85;;;11.60;99.90;;;;;;4989238;28;20065;-85
2022/01/01 10:16:05;;;;;;;50.35;22.95;;;11.60;99.90;;;;;;5001013;28;20124;-83
2022/01/01 10:18:34;;;;;;;44.03;22.10;;;11.70;99.90;;;;;;5016063;28;20435;-84
2022/01/01 10:21:09;;;;;;;43.88;21.80;;;11.70;99.90;;;;;;4997182;28;20046;-84
2022/01/01 10:23:36;;;;;;;40.50;21.45;;;11.70;99.90;;;;;;5014030;28;20045;-84
2022/01/01 10:29:30;;;;;;;44.42;21.45;;;12.20;99.90;;;;;;5014423;28;20129;-81
2022/01/01 10:32:10;;;;;;;37.53;19.90;;;11.80;99.90;;;;;;5014378;28;20068;-80
2022/01/01 10:34:37;;;;;;;41.53;19.33;;;11.80;99.90;;;;;;5014648;28;20176;-80
2022/01/01 10:37:06;;;;;;;35.47;17.88;;;11.90;99.90;;;;;;4996913;28;20049;-81
2022/01/01 10:39:32;;;;;;;34.70;17.45;;;11.80;99.90;;;;;;5014339;28;20046;-84
2022/01/01 10:42:03;;;;;;;39.17;17.88;;;11.90;99.90;;;;;;5014162;28;20050;-83
2022/01/01 10:44:34;;;;;;;36.97;16.50;;;11.90;99.90;;;;;;5014435;28;20045;-84
2022/01/01 10:47:06;;;;;;;31.25;16.20;;;11.90;99.90;;;;;;5014297;28;20110;-84
2022/01/01 10:52:27;;;;;;;30.10;14.73;;;12.00;99.90;;;;;;5013965;28;20049;-84
2022/01/01 10:54:57;;;;;;;29.88;14.75;;;11.90;99.90;;;;;;5014267;28;20038;-83
2022/01/01 10:57:37;;;;;;;32.05;15.65;;;11.80;99.90;;;;;;5014084;28;20053;-84
2022/01/01 11:00:12;;;;;;;34.08;14.52;;;11.90;99.90;;;;;;5014154;28;20116;-80
2022/01/01 11:02:42;;;;;;;31.63;14.80;;;11.90;99.90;;;;;;5013955;28;20042;-80
2022/01/01 11:05:08;;;;;;;31.13;14.65;;;11.90;99.90;;;;;;5013550;28;20049;-81
2022/01/01 11:07:34;;;;;;;27.77;13.20;;;11.90;99.90;;;;;;5013513;28;20062;-82
2022/01/01 11:10:00;;;;;;;26.10;12.48;;;11.90;99.90;;;;;;5013727;28;20484;-84
2022/01/01 11:12:29;;;;;;;29.83;13.25;;;12.00;99.90;;;;;;5014021;28;20109;-85
2022/01/01 11:14:58;;;;;;;30.08;12.82;;;11.90;99.90;;;;;;5013744;28;20184;-84
2022/01/01 11:17:24;;;;;;;26.75;13.07;;;11.90;99.90;;;;;;5013638;28;20124;-84
2022/01/01 11:19:50;;;;;;;29.27;13.68;;;12.40;99.90;;;;;;5013134;28;20034;-84
2022/01/01 11:22:18;;;;;;;26.30;13.05;;;12.00;99.90;;;;;;5013637;28;20041;-84
2022/01/01 11:24:46;;;;;;;27.77;12.93;;;12.00;99.90;;;;;;5013598;28;20068;-83
2022/01/01 11:27:12;;;;;;;26.40;12.40;;;12.10;99.90;;;;;;5013631;28;20420;-85
2022/01/01 11:29:48;;;;;;;24.15;12.45;;;12.00;99.90;;;;;;5013635;28;20392;-85
2022/01/01 11:32:15;;;;;;;26.38;10.90;;;12.10;99.90;;;;;;5013524;28;20037;-84
2022/01/01 11:34:44;;;;;;;25.98;11.93;;;12.10;99.90;;;;;;5014640;28;20110;-84
2022/01/01 11:37:14;;;;;;;24.05;11.10;;;12.10;99.90;;;;;;5017209;28;20081;-83
2022/01/01 11:39:40;;;;;;;23.50;11.27;;;12.60;99.90;;;;;;5014000;28;20042;-84
2022/01/01 11:42:15;;;;;;;22.88;11.10;;;12.10;99.90;;;;;;5014585;28;20112;-84
2022/01/01 11:44:43;;;;;;;26.55;10.38;;;12.10;99.90;;;;;;5013203;28;20439;-84
2022/01/01 11:47:23;;;;;;;21.10;10.70;;;12.20;99.90;;;;;;4995656;28;20068;-83
2022/01/01 11:49:52;;;;;;;21.83;10.50;;;12.10;99.90;;;;;;5012937;28;20045;-84
2022/01/01 11:52:40;;;;;;;23.92;10.10;;;12.10;99.90;;;;;;5013251;28;20041;-83
2022/01/01 11:55:16;;;;;;;27.15;11.57;;;12.30;99.90;;;;;;4995892;28;20037;-83
2022/01/01 11:58:11;;;;;;;23.30;10.10;;;12.10;99.90;;;;;;5012931;28;20050;-84
2022/01/01 12:00:56;;;;;;;18.35;9.20;;;12.20;99.90;;;;;;5013032;28;20399;-83
2022/01/01 12:03:23;;;;;;;22.50;9.13;;;12.10;99.90;;;;;;4995145;28;20085;-84
2022/01/01 12:06:04;;;;;;;18.05;8.90;;;12.30;99.90;;;;;;5012655;28;20049;-84
2022/01/01 12:08:46;;;;;;;21.98;9.05;;;12.10;99.90;;;;;;5013158;28;20063;-84
2022/01/01 12:11:33;;;;;;;19.08;8.73;;;12.10;99.90;;;;;;4995711;28;20104;-84
2022/01/01 12:14:01;;;;;;;18.00;8.52;;;12.20;99.90;;;;;;5013110;28;20124;-84
2022/01/01 12:16:29;;;;;;;18.73;8.48;;;12.10;99.90;;;;;;5015106;28;20042;-83
2022/01/01 12:19:06;;;;;;;22.25;8.65;;;12.10;99.90;;;;;;5013009;28;20097;-84
2022/01/01 12:21:41;;;;;;;21.15;8.23;;;12.00;99.90;;;;;;5012695;28;20060;-83
2022/01/01 12:24:11;;;;;;;17.20;7.25;;;12.00;99.90;;;;;;5013000;28;20052;-84
2022/01/01 12:26:37;;;;;;;19.92;7.40;;;12.00;99.90;;;;;;4978871;28;20046;-84
2022/01/01 12:29:07;;;;;;;17.98;7.18;;;12.00;99.90;;;;;;5000364;28;20045;-80
2022/01/01 12:31:33;;;;;;;19.48;7.35;;;12.40;99.90;;;;;;5019002;28;20050;-80
2022/01/01 12:34:09;;;;;;;15.15;6.57;;;12.20;99.90;;;;;;4999155;28;20061;-84
2022/01/01 12:36:35;;;;;;;21.02;7.43;;;12.00;99.90;;;;;;4995263;28;20108;-84
2022/01/01 12:39:05;;;;;;;21.48;7.28;;;12.20;99.90;;;;;;5012765;28;20125;-81